Time;durP1;ratioP1;P1;durP2;ratioP2;P2;SDS_P1;SDS_P2;PMS_P1;PMS_P2;Temp;Humidity;BMP_temperature;BMP_pressure;BME280_temperature;BME280_humidity;BME280_pressure;Samples;Min_cycle;Max_cycle;Signal;HPM_P1;HPM_P2
2024/01/06 00:00:55;;;;;;;29.90;14.27;;;;;;;2.26;67.33;100510.08;123662;1099;104511;-78
2024/01/06 00:03:46;;;;;;;31.07;14.10;;;;;;;2.27;67.27;100514.48;123665;1099;104332;-77
2024/01/06 00:06:17;;;;;;;29.33;14.13;;;;;;;2.30;67.59;100512.98;123770;1099;104341;-77
2024/01/06 00:08:53;;;;;;;28.00;13.90;;;;;;;2.34;67.60;100508.94;123592;1099;104409;-77
2024/01/06 00:11:25;;;;;;;25.97;13.37;;;;;;;2.36;67.44;100516.81;123683;1099;104345;-77
2024/01/06 00:13:56;;;;;;;25.57;13.40;;;;;;;2.38;67.72;100528.16;123676;1099;104383;-77
2024/01/06 00:16:27;;;;;;;27.07;13.10;;;;;;;2.41;67.55;100515.42;123649;1099;104360;-77
2024/01/06 00:19:02;;;;;;;28.03;13.03;;;;;;;2.43;67.64;100506.98;123676;1099;104392;-77
2024/01/06 00:21:33;;;;;;;24.65;11.95;;;;;;;2.44;68.30;100513.05;123797;1099;104227;-77
2024/01/06 00:24:05;;;;;;;25.77;12.20;;;;;;;2.43;67.34;100512.16;123675;1099;104315;-77
2024/01/06 00:26:38;;;;;;;28.60;12.50;;;;;;;2.43;67.43;100517.34;123658;1099;104226;-77
2024/01/06 00:29:10;;;;;;;25.80;12.53;;;;;;;2.44;67.85;100516.52;123658;1099;104315;-76
2024/01/06 00:31:41;;;;;;;24.60;12.50;;;;;;;2.45;68.15;100517.45;123694;1099;104402;-77
2024/01/06 00:34:12;;;;;;;25.15;11.70;;;;;;;2.47;67.88;100521.91;123744;1099;104274;-77
2024/01/06 00:36:43;;;;;;;25.17;11.73;;;;;;;2.48;68.20;100512.47;123744;1099;104220;-78
2024/01/06 00:39:14;;;;;;;24.00;11.17;;;;;;;2.46;67.47;100506.27;123745;1099;104379;-78
2024/01/06 00:41:45;;;;;;;24.15;11.75;;;;;;;2.45;67.92;100497.61;123599;1099;104408;-78
2024/01/06 00:44:17;;;;;;;23.10;11.10;;;;;;;2.43;68.05;100495.70;123701;1099;104318;-78
2024/01/06 00:46:48;;;;;;;23.57;11.17;;;;;;;2.40;67.99;100504.18;123732;1099;104185;-78
2024/01/06 00:49:21;;;;;;;23.90;11.23;;;;;;;2.40;68.23;100508.44;123856;1099;104352;-78
2024/01/06 00:51:52;;;;;;;24.97;11.50;;;;;;;2.37;67.87;100488.44;123523;1099;104242;-78
2024/01/06 00:54:23;;;;;;;24.90;12.07;;;;;;;2.36;68.70;100491.80;123475;1099;104351;-78
2024/01/06 00:56:55;;;;;;;23.97;11.07;;;;;;;2.36;68.12;100485.73;123856;1099;104390;-78
2024/01/06 00:59:27;;;;;;;26.77;12.50;;;;;;;2.34;68.07;100481.34;123565;1097;104353;-78
2024/01/06 01:01:58;;;;;;;24.50;12.25;;;;;;;2.32;67.78;100469.98;123920;1099;104344;-79
2024/01/06 01:04:29;;;;;;;27.05;11.30;;;;;;;2.30;69.63;100471.55;123682;1099;104354;-78
2024/01/06 01:07:00;;;;;;;25.70;11.63;;;;;;;2.28;68.29;100475.74;123770;1098;104737;-78
2024/01/06 01:09:32;;;;;;;25.50;12.00;;;;;;;2.26;68.72;100476.42;123767;1099;104341;-78
2024/01/06 01:12:03;;;;;;;24.27;11.93;;;;;;;2.23;68.63;100471.03;123717;1098;105499;-77
2024/01/06 01:14:34;;;;;;;24.87;12.30;;;;;;;2.22;68.67;100466.67;123425;1099;104287;-78
2024/01/06 01:17:06;;;;;;;24.90;12.27;;;;;;;2.21;67.87;100476.10;123482;1099;104305;-78
2024/01/06 01:19:37;;;;;;;24.67;12.17;;;;;;;2.18;68.11;100470.72;123635;1099;104262;-78
2024/01/06 01:22:08;;;;;;;26.33;12.13;;;;;;;2.17;68.63;100474.12;123489;1099;104277;-78
2024/01/06 01:24:40;;;;;;;24.65;11.35;;;;;;;2.15;68.36;100462.73;123725;1099;104683;-78
2024/01/06 01:27:11;;;;;;;26.13;12.03;;;;;;;2.15;68.63;100463.66;123668;1099;104269;-78
2024/01/06 01:29:42;;;;;;;23.33;11.97;;;;;;;2.13;68.14;100457.45;123705;1099;104349;-78
2024/01/06 01:32:13;;;;;;;23.03;11.00;;;;;;;2.11;68.74;100455.58;123730;1099;104267;-78
2024/01/06 01:34:45;;;;;;;24.87;11.97;;;;;;;2.09;69.15;100455.47;123747;1098;104165;-79
2024/01/06 01:37:16;;;;;;;24.87;11.90;;;;;;;2.09;68.75;100455.47;123327;1099;104329;-78
2024/01/06 01:39:47;;;;;;;23.07;11.10;;;;;;;2.10;68.93;100448.59;123312;1099;104254;-78
2024/01/06 01:42:18;;;;;;;24.67;11.57;;;;;;;2.10;68.37;100444.33;123729;1099;104339;-78
2024/01/06 01:44:49;;;;;;;22.77;11.10;;;;;;;2.12;68.47;100442.73;123589;1099;104496;-78
2024/01/06 01:47:21;;;;;;;21.50;10.40;;;;;;;2.12;68.71;100439.23;123669;1099;104249;-78
2024/01/06 01:49:53;;;;;;;23.47;10.60;;;;;;;2.10;68.67;100440.83;123654;1099;104755;-78
2024/01/06 01:52:24;;;;;;;22.33;11.10;;;;;;;2.09;69.16;100442.53;123604;1099;104242;-78
2024/01/06 01:54:56;;;;;;;22.73;11.17;;;;;;;2.08;68.62;100439.83;123564;1099;104344;-78
2024/01/06 01:57:28;;;;;;;23.00;11.33;;;;;;;2.08;68.37;100432.95;123647;1099;104370;-77
2024/01/06 02:00:02;;;;;;;22.73;10.87;;;;;;;2.10;68.44;100431.39;123642;1099;104274;-79
2024/01/06 02:02:43;;;;;;;20.63;9.70;;;;;;;2.11;69.01;100427.98;123595;1099;104267;-77
2024/01/06 02:05:14;;;;;;;24.77;10.67;;;;;;;2.11;69.06;100421.92;123521;1099;104296;-78
2024/01/06 02:07:47;;;;;;;22.75;10.65;;;;;;;2.10;69.14;100420.11;123519;1099;104339;-78
2024/01/06 02:10:18;;;;;;;22.07;10.80;;;;;;;2.10;69.25;100420.11;123489;1099;104380;-78
2024/01/06 02:12:51;;;;;;;23.33;11.03;;;;;;;2.09;69.64;100407.98;123555;1098;104327;-78
2024/01/06 02:15:23;;;;;;;20.80;10.20;;;;;;;2.09;70.42;100402.81;123710;1099;104299;-79
2024/01/06 02:17:54;;;;;;;21.30;10.07;;;;;;;2.10;69.57;100402.00;123522;1099;104251;-77
2024/01/06 02:20:27;;;;;;;20.90;10.03;;;;;;;2.08;69.70;100399.30;123522;1099;104296;-77
2024/01/06 02:23:00;;;;;;;22.10;9.67;;;;;;;2.07;69.68;100397.53;123553;1099;104720;-78
2024/01/06 02:25:31;;;;;;;21.53;10.27;;;;;;;2.10;69.80;100391.64;123526;1099;104253;-77
2024/01/06 02:28:02;;;;;;;24.17;10.00;;;;;;;2.12;69.03;100390.96;123581;1099;104284;-78
2024/01/06 02:30:34;;;;;;;22.70;10.73;;;;;;;2.14;69.67;100389.36;123557;1099;104299;-78
2024/01/06 02:33:06;;;;;;;20.87;9.90;;;;;;;2.15;69.74;100380.81;123468;1099;104327;-77
2024/01/06 02:35:37;;;;;;;22.83;10.23;;;;;;;2.16;70.18;100384.29;123540;1099;104329;-78
2024/01/06 02:38:09;;;;;;;20.43;9.53;;;;;;;2.15;70.24;100374.72;123552;1099;104277;-77
2024/01/06 02:40:42;;;;;;;19.90;9.60;;;;;;;2.13;69.96;100384.09;123294;1099;104312;-77
2024/01/06 02:43:13;;;;;;;22.23;10.43;;;;;;;2.12;70.22;100380.61;123528;1099;104300;-77
2024/01/06 02:45:46;;;;;;;20.83;9.90;;;;;;;2.11;70.01;100381.39;123355;1102;104393;-77
2024/01/06 02:48:18;;;;;;;22.67;10.23;;;;;;;2.11;70.32;100381.39;123595;1099;104249;-77
2024/01/06 02:50:49;;;;;;;20.17;9.60;;;;;;;2.11;70.11;100381.39;123414;1099;104354;-77
2024/01/06 02:53:20;;;;;;;22.70;10.40;;;;;;;2.11;70.11;100376.22;123728;1099;104248;-77
2024/01/06 02:55:55;;;;;;;20.05;9.63;;;;;;;2.12;70.46;100380.61;123392;1099;104573;-77
2024/01/06 02:58:26;;;;;;;20.53;9.53;;;;;;;2.11;70.04;100377.92;123602;1099;104258;-78
2024/01/06 03:00:59;;;;;;;20.60;9.43;;;;;;;2.10;70.21;100374.44;123528;1099;104367;-79
2024/01/06 03:03:33;;;;;;;21.13;10.07;;;;;;;2.12;70.36;100371.92;123619;1099;104169;-78
2024/01/06 03:06:04;;;;;;;22.50;10.03;;;;;;;2.11;70.14;100373.63;123630;1099;104406;-78
2024/01/06 03:08:37;;;;;;;22.83;10.37;;;;;;;2.12;70.53;100370.25;123659;1099;104291;-78
2024/01/06 03:11:08;;;;;;;21.27;9.63;;;;;;;2.14;70.40;100373.83;123655;1099;104373;-78
2024/01/06 03:13:39;;;;;;;20.50;9.40;;;;;;;2.18;70.33;100374.04;123594;1099;104300;-77
2024/01/06 03:16:12;;;;;;;20.17;9.57;;;;;;;2.15;69.85;100373.05;123717;1099;104223;-78
2024/01/06 03:18:44;;;;;;;19.53;9.23;;;;;;;2.17;70.51;100370.56;123914;1099;104245;-78
2024/01/06 03:21:21;;;;;;;22.85;9.25;;;;;;;2.15;69.92;100367.88;123557;1099;104296;-77
2024/01/06 03:23:52;;;;;;;22.55;9.80;;;;;;;2.14;70.34;100363.48;123571;1098;104326;-77
2024/01/06 03:26:23;;;;;;;21.63;10.07;;;;;;;2.14;70.37;100366.06;123629;1098;104479;-78
2024/01/06 03:28:55;;;;;;;18.70;9.10;;;;;;;2.15;70.39;100360.11;123670;1099;104296;-77
2024/01/06 03:31:27;;;;;;;23.60;9.90;;;;;;;2.17;70.42;100349.85;123613;1099;104772;-78
2024/01/06 03:33:58;;;;;;;20.30;9.77;;;;;;;2.16;70.49;100348.94;123611;1099;104366;-78
2024/01/06 03:36:29;;;;;;;21.47;9.93;;;;;;;2.16;70.88;100356.70;123630;1099;104295;-77
2024/01/06 03:39:00;;;;;;;22.30;10.13;;;;;;;2.14;70.82;100349.65;123580;1099;104357;-78
2024/01/06 03:41:31;;;;;;;21.37;9.43;;;;;;;2.15;70.77;100360.11;123275;1099;104409;-78
2024/01/06 03:44:02;;;;;;;20.43;9.43;;;;;;;2.11;70.97;100354.62;123705;1099;104316;-78
2024/01/06 03:46:34;;;;;;;23.23;10.07;;;;;;;2.11;71.03;100350.33;123654;1099;104363;-78
2024/01/06 03:49:05;;;;;;;19.70;9.57;;;;;;;2.10;71.01;100351.14;123584;1099;104393;-78
2024/01/06 03:51:36;;;;;;;21.27;9.93;;;;;;;2.11;70.70;100344.27;123504;1099;104351;-78
2024/01/06 03:54:08;;;;;;;20.80;9.43;;;;;;;2.09;70.77;100344.16;123575;1099;104623;-77
2024/01/06 03:56:39;;;;;;;22.00;10.27;;;;;;;2.06;70.88;100341.37;123556;1099;104271;-78
2024/01/06 03:59:11;;;;;;;22.13;10.47;;;;;;;2.04;71.04;100345.55;123648;1099;104312;-78
2024/01/06 04:01:42;;;;;;;21.47;10.03;;;;;;;2.04;70.74;100349.81;123600;1099;104345;-78
2024/01/06 04:04:13;;;;;;;22.53;10.07;;;;;;;1.99;70.85;100339.15;123705;1099;104262;-78
2024/01/06 04:06:44;;;;;;;23.50;10.77;;;;;;;1.95;71.41;100332.88;123709;1099;104225;-78
2024/01/06 04:09:16;;;;;;;25.13;11.77;;;;;;;1.94;71.02;100332.78;123597;1099;105118;-78
2024/01/06 04:11:47;;;;;;;21.93;10.83;;;;;;;1.93;71.05;100328.39;123703;1099;104700;-77
2024/01/06 04:14:18;;;;;;;23.13;11.70;;;;;;;1.90;71.21;100325.59;123628;1099;104338;-77
2024/01/06 04:16:49;;;;;;;22.47;10.20;;;;;;;1.91;71.47;100319.63;123237;1099;104520;-77
2024/01/06 04:19:20;;;;;;;24.67;11.10;;;;;;;1.88;71.25;100320.31;123528;1099;104267;-77
2024/01/06 04:21:51;;;;;;;22.97;10.77;;;;;;;1.89;71.24;100316.05;123508;1099;104245;-77
2024/01/06 04:24:22;;;;;;;25.17;11.00;;;;;;;1.92;71.48;100324.03;123630;1099;104434;-78
2024/01/06 04:26:54;;;;;;;25.37;10.73;;;;;;;1.96;71.52;100313.98;123758;1099;104323;-77
2024/01/06 04:29:25;;;;;;;23.90;10.97;;;;;;;2.04;71.31;100316.16;123574;1099;104702;-77
2024/01/06 04:31:56;;;;;;;23.93;10.97;;;;;;;2.12;71.59;100317.56;123396;1099;104405;-77
2024/01/06 04:34:27;;;;;;;26.00;11.13;;;;;;;2.18;71.62;100320.56;123531;1099;104297;-78
2024/01/06 04:36:58;;;;;;;23.33;10.50;;;;;;;2.26;71.38;100310.71;123538;1099;104274;-77
2024/01/06 04:39:32;;;;;;;20.87;10.53;;;;;;;2.31;71.54;100307.64;123542;1099;104316;-77
2024/01/06 04:42:03;;;;;;;23.33;10.10;;;;;;;2.37;72.13;100307.16;123192;1099;104331;-77
2024/01/06 04:44:34;;;;;;;23.03;10.57;;;;;;;2.40;71.87;100307.36;123642;1099;105453;-78
2024/01/06 04:47:06;;;;;;;21.47;10.63;;;;;;;2.43;71.51;100302.38;123617;1099;110734;-77
2024/01/06 04:49:37;;;;;;;23.70;11.17;;;;;;;2.46;71.87;100301.66;123597;1099;104370;-78
2024/01/06 04:52:08;;;;;;;21.00;10.57;;;;;;;2.48;71.85;100297.50;123552;1099;104792;-77
2024/01/06 04:54:39;;;;;;;23.80;11.97;;;;;;;2.54;72.07;100310.84;123504;1099;104373;-78
2024/01/06 04:57:11;;;;;;;25.13;10.17;;;;;;;2.57;72.48;100308.45;123596;1099;104352;-78
2024/01/06 04:59:42;;;;;;;25.87;11.57;;;;;;;2.59;72.13;100303.37;123486;1099;104364;-78
2024/01/06 05:02:13;;;;;;;25.53;11.73;;;;;;;2.60;72.44;100297.37;123597;1099;104270;-79
2024/01/06 05:04:45;;;;;;;24.00;11.13;;;;;;;2.63;72.72;100293.30;123604;1099;104363;-77
2024/01/06 05:07:16;;;;;;;21.03;10.70;;;;;;;2.67;72.05;100286.61;123525;1098;104293;-78
2024/01/06 05:09:47;;;;;;;22.23;10.67;;;;;;;2.73;72.44;100292.19;123578;1098;104249;-77
2024/01/06 05:12:18;;;;;;;23.47;11.03;;;;;;;2.75;72.18;100295.76;123603;1099;104271;-77
2024/01/06 05:14:49;;;;;;;23.53;10.50;;;;;;;2.74;72.77;100286.18;123517;1099;104399;-77
2024/01/06 05:17:21;;;;;;;23.93;10.90;;;;;;;2.75;72.22;100279.33;123571;1099;104271;-78
2024/01/06 05:19:52;;;;;;;25.53;11.83;;;;;;;2.76;72.96;100287.20;123524;1099;104305;-78
2024/01/06 05:22:23;;;;;;;21.20;11.00;;;;;;;2.79;72.86;100292.58;123622;1099;104290;-78
2024/01/06 05:24:55;;;;;;;22.67;11.30;;;;;;;2.84;73.06;100283.38;123565;1099;104363;-79
2024/01/06 05:27:26;;;;;;;22.60;10.23;;;;;;;2.87;73.17;100283.58;123408;1099;104255;-78
2024/01/06 05:29:57;;;;;;;22.47;10.83;;;;;;;2.93;73.10;100290.86;123668;1099;104942;-77
2024/01/06 05:32:28;;;;;;;21.20;10.30;;;;;;;2.97;73.18;100294.52;123751;1099;104305;-78
2024/01/06 05:35:00;;;;;;;22.87;10.73;;;;;;;2.99;72.86;100287.73;123751;1099;104268;-78
2024/01/06 05:37:31;;;;;;;21.47;10.60;;;;;;;3.02;73.32;100285.33;123672;1098;104249;-78
2024/01/06 05:40:03;;;;;;;22.87;11.40;;;;;;;3.05;73.51;100273.48;123654;1099;104268;-79
2024/01/06 05:42:35;;;;;;;24.15;11.00;;;;;;;3.10;73.30;100276.36;123612;1099;104329;-78
2024/01/06 05:45:07;;;;;;;24.30;11.47;;;;;;;3.14;73.16;100273.12;123530;1099;104287;-79
2024/01/06 05:47:38;;;;;;;20.00;9.07;;;;;;;3.16;73.94;100271.52;123470;1099;105710;-78
2024/01/06 05:50:11;;;;;;;22.30;10.60;;;;;;;3.17;73.57;100270.73;123635;1099;104328;-79
2024/01/06 05:52:42;;;;;;;23.83;11.37;;;;;;;3.18;73.61;100269.94;123741;1099;104280;-77
2024/01/06 05:55:13;;;;;;;23.53;12.10;;;;;;;3.23;74.11;100275.41;123881;1099;104246;-78
2024/01/06 05:57:45;;;;;;;29.27;12.73;;;;;;;3.24;74.32;100262.53;123769;1099;104655;-78
2024/01/06 06:00:18;;;;;;;26.43;10.93;;;;;;;3.27;74.31;100264.39;123928;1098;104226;-78
2024/01/06 06:02:49;;;;;;;24.60;11.90;;;;;;;3.31;75.51;100275.88;123686;1099;104246;-78
2024/01/06 06:05:20;;;;;;;25.57;12.37;;;;;;;3.33;75.18;100266.48;123692;1099;104652;-78
2024/01/06 06:07:51;;;;;;;26.87;11.33;;;;;;;3.35;74.72;100265.78;123773;1099;104312;-78
2024/01/06 06:10:22;;;;;;;26.73;12.23;;;;;;;3.35;75.16;100270.97;123567;1099;104319;-78
2024/01/06 06:12:54;;;;;;;28.30;11.23;;;;;;;3.39;75.45;100275.52;123831;1099;104370;-78
2024/01/06 06:15:25;;;;;;;25.97;11.93;;;;;;;3.41;75.94;100260.05;123709;1098;104270;-79
2024/01/06 06:17:59;;;;;;;28.40;11.80;;;;;;;3.41;75.64;100266.16;123544;1099;104807;-79
2024/01/06 06:20:28;;;;;;;;;;;;;;;3.41;76.48;100262.64;123811;1099;104226;-78
2024/01/06 06:23:00;;;;;;;27.63;12.53;;;;;;;3.42;76.19;100257.55;123603;1099;104727;-80
2024/01/06 06:25:31;;;;;;;25.33;10.57;;;;;;;3.46;76.33;100255.14;123653;1099;104268;-78
2024/01/06 06:28:03;;;;;;;28.90;12.27;;;;;;;3.48;76.73;100251.84;123709;1099;104322;-79
2024/01/06 06:30:34;;;;;;;30.63;12.60;;;;;;;3.50;76.30;100242.44;123669;1099;104242;-78
2024/01/06 06:33:06;;;;;;;29.33;13.03;;;;;;;3.54;76.41;100247.02;123869;1099;104252;-78
2024/01/06 06:35:38;;;;;;;32.57;14.03;;;;;;;3.58;76.36;100241.22;123734;1098;104488;-78
2024/01/06 06:38:09;;;;;;;32.63;13.63;;;;;;;3.63;77.02;100238.91;123622;1099;104210;-79
2024/01/06 06:40:41;;;;;;;33.80;14.60;;;;;;;3.65;76.57;100238.99;123681;1098;104318;-78
2024/01/06 06:43:12;;;;;;;30.93;13.90;;;;;;;3.66;76.69;100230.38;123374;1099;104245;-78
2024/01/06 06:45:43;;;;;;;34.60;14.87;;;;;;;3.68;77.76;100226.20;123687;1099;104331;-78
2024/01/06 06:48:17;;;;;;;29.97;14.07;;;;;;;3.72;77.07;100235.94;123682;1099;104338;-78
2024/01/06 06:50:48;;;;;;;33.57;14.37;;;;;;;3.73;77.06;100238.62;123658;1099;104373;-78
2024/01/06 06:53:20;;;;;;;35.03;15.17;;;;;;;3.80;77.07;100244.17;124112;1099;104251;-77
2024/01/06 06:55:51;;;;;;;37.47;15.23;;;;;;;3.84;78.33;100241.84;124030;1099;104291;-77
2024/01/06 06:58:23;;;;;;;36.87;15.60;;;;;;;3.90;77.32;100237.02;123883;1099;104489;-77
2024/01/06 07:00:55;;;;;;;37.25;15.95;;;;;;;3.94;77.40;100238.98;123550;1099;104297;-78
2024/01/06 07:03:26;;;;;;;38.17;15.83;;;;;;;3.99;78.03;100236.66;123777;1099;104268;-78
2024/01/06 07:05:58;;;;;;;42.70;17.00;;;;;;;4.05;77.69;100236.09;123915;1099;104648;-78
2024/01/06 07:08:29;;;;;;;35.70;15.87;;;;;;;4.10;78.13;100232.09;123793;1099;104283;-77
2024/01/06 07:11:00;;;;;;;41.13;18.53;;;;;;;4.12;77.72;100233.06;123801;1099;104294;-78
2024/01/06 07:13:32;;;;;;;42.23;18.70;;;;;;;4.17;78.90;100238.52;123964;1099;104313;-78
2024/01/06 07:16:09;;;;;;;43.17;18.73;;;;;;;4.20;78.66;100236.98;123887;1098;104267;-78
2024/01/06 07:18:41;;;;;;;43.13;19.07;;;;;;;4.24;78.91;100227.64;123749;1099;104281;-78
2024/01/06 07:21:14;;;;;;;46.77;19.20;;;;;;;4.27;78.48;100223.55;123934;1099;104175;-78
2024/01/06 07:23:45;;;;;;;43.95;19.00;;;;;;;4.31;78.60;100220.28;123909;1099;104370;-78
2024/01/06 07:26:17;;;;;;;41.73;19.20;;;;;;;4.35;79.18;100225.66;123703;1099;104175;-78
2024/01/06 07:28:48;;;;;;;45.23;18.27;;;;;;;4.36;78.90;100220.55;124104;1098;104245;-78
2024/01/06 07:31:20;;;;;;;47.33;20.17;;;;;;;4.41;79.18;100221.72;123837;1099;104299;-78
2024/01/06 07:33:51;;;;;;;45.83;19.00;;;;;;;4.45;79.79;100217.58;123699;1099;104239;-79
2024/01/06 07:36:22;;;;;;;40.90;17.03;;;;;;;4.52;79.65;100218.80;123619;1099;104862;-78
2024/01/06 07:38:54;;;;;;;43.05;19.80;;;;;;;4.55;79.11;100209.50;123649;1099;104665;-78
2024/01/06 07:41:25;;;;;;;45.63;18.37;;;;;;;4.60;79.70;100207.16;123603;1099;104386;-78
2024/01/06 07:43:56;;;;;;;36.87;17.23;;;;;;;4.63;79.96;100208.20;123770;1099;104309;-78
2024/01/06 07:46:28;;;;;;;41.67;18.50;;;;;;;4.70;79.88;100214.62;123488;1099;104322;-78
2024/01/06 07:48:59;;;;;;;38.17;17.03;;;;;;;4.76;79.97;100214.07;123662;1099;104358;-78
2024/01/06 07:51:31;;;;;;;36.43;16.90;;;;;;;4.82;79.43;100214.41;123571;1098;104360;-78
2024/01/06 07:54:02;;;;;;;37.37;16.77;;;;;;;4.88;80.22;100214.73;123774;1099;104220;-79
2024/01/06 07:56:33;;;;;;;38.00;16.63;;;;;;;4.92;80.17;100197.59;123802;1099;104280;-79
2024/01/06 07:59:05;;;;;;;35.33;16.47;;;;;;;4.93;79.77;100201.98;123683;1099;104226;-78
2024/01/06 08:01:36;;;;;;;35.67;16.97;;;;;;;4.95;80.78;100208.15;123686;1098;104245;-78
2024/01/06 08:04:07;;;;;;;34.70;16.17;;;;;;;4.99;80.04;100192.80;123640;1098;104309;-78
2024/01/06 08:06:41;;;;;;;36.63;15.73;;;;;;;5.04;80.38;100198.23;123677;1099;104239;-79
2024/01/06 08:09:12;;;;;;;33.28;15.95;;;;;;;5.10;80.12;100201.16;123770;1099;104326;-78
2024/01/06 08:11:45;;;;;;;32.73;14.90;;;;;;;5.13;80.76;100200.45;123683;1099;104353;-79
2024/01/06 08:14:17;;;;;;;31.68;15.32;;;;;;;5.17;80.86;100204.97;123959;1099;102328;-79
2024/01/06 08:16:48;;;;;;;34.50;14.73;;;;;;;5.18;80.68;100210.26;123805;1099;104362;-78
2024/01/06 08:19:19;;;;;;;32.67;14.70;;;;;;;5.20;81.01;100206.05;123664;1099;104358;-78
2024/01/06 08:21:50;;;;;;;33.77;14.50;;;;;;;5.23;81.18;100197.49;123681;1099;104290;-78
2024/01/06 08:24:22;;;;;;;35.50;15.57;;;;;;;5.27;80.63;100189.05;123808;1099;104197;-78
2024/01/06 08:26:53;;;;;;;32.53;14.37;;;;;;;5.33;81.11;100191.97;123632;1099;104380;-78
2024/01/06 08:29:24;;;;;;;32.07;14.97;;;;;;;5.36;80.85;100186.92;123855;1099;104393;-78
2024/01/06 08:31:58;;;;;;;31.20;14.30;;;;;;;5.42;81.02;100183.72;123806;1099;104270;-78
2024/01/06 08:34:29;;;;;;;29.48;13.95;;;;;;;5.47;81.34;100176.14;123719;1099;104287;-78
2024/01/06 08:37:00;;;;;;;32.90;14.05;;;;;;;5.52;81.02;100167.77;123819;1099;104345;-77
2024/01/06 08:39:31;;;;;;;33.47;13.27;;;;;;;5.58;81.30;100172.40;123807;1099;104386;-78
2024/01/06 08:42:02;;;;;;;25.63;11.40;;;;;;;5.64;81.75;100170.11;123583;1098;104329;-78
2024/01/06 08:44:34;;;;;;;27.33;12.20;;;;;;;5.67;82.02;100159.84;123794;1099;104268;-79
2024/01/06 08:47:06;;;;;;;24.97;11.73;;;;;;;5.71;81.66;100143.55;123844;1099;104666;-78
2024/01/06 08:49:37;;;;;;;25.60;11.70;;;;;;;5.76;81.93;100141.16;123794;1099;104392;-78
2024/01/06 08:52:09;;;;;;;27.03;12.03;;;;;;;5.80;81.96;100139.59;123963;1098;104267;-78
2024/01/06 08:54:40;;;;;;;26.30;11.73;;;;;;;5.84;82.12;100133.73;123829;1099;104252;-79
2024/01/06 08:57:11;;;;;;;28.13;12.57;;;;;;;5.89;81.85;100120.12;123809;1098;104309;-78
2024/01/06 08:59:42;;;;;;;26.73;12.20;;;;;;;5.96;82.06;100121.30;123845;1098;104313;-78
2024/01/06 09:02:14;;;;;;;29.85;14.25;;;;;;;6.02;82.22;100115.55;123855;1099;104271;-78
2024/01/06 09:04:45;;;;;;;29.00;14.07;;;;;;;6.06;82.63;100107.95;123889;1099;104287;-78
2024/01/06 09:07:17;;;;;;;31.10;14.70;;;;;;;6.10;82.43;100104.64;123675;1099;104324;-78
2024/01/06 09:09:48;;;;;;;31.50;14.87;;;;;;;6.17;82.05;100110.15;123929;1099;104261;-79
2024/01/06 09:12:20;;;;;;;34.90;15.17;;;;;;;6.23;82.11;100105.23;123867;1099;111612;-78
2024/01/06 09:14:52;;;;;;;33.33;14.73;;;;;;;6.28;82.16;100104.63;123964;1099;104363;-78
2024/01/06 09:17:23;;;;;;;35.90;15.47;;;;;;;6.36;82.06;100104.08;123758;1099;104341;-78
2024/01/06 09:19:57;;;;;;;39.17;16.63;;;;;;;6.42;82.29;100102.66;123945;1099;104229;-78
2024/01/06 09:22:29;;;;;;;31.63;15.53;;;;;;;6.46;83.66;100099.36;123918;1098;104188;-80
2024/01/06 09:25:00;;;;;;;33.20;16.13;;;;;;;6.45;82.71;100089.77;123809;1099;104222;-77
2024/01/06 09:27:32;;;;;;;35.13;16.60;;;;;;;6.50;82.54;100092.59;123784;1099;104190;-77
2024/01/06 09:30:04;;;;;;;34.20;16.23;;;;;;;6.61;82.78;100088.75;123676;1098;104305;-77
2024/01/06 09:32:35;;;;;;;31.33;16.03;;;;;;;6.72;82.37;100086.62;123714;1099;104344;-78
2024/01/06 09:35:07;;;;;;;32.87;15.73;;;;;;;6.87;82.26;100085.50;123917;1099;104270;-77
2024/01/06 09:37:40;;;;;;;32.83;16.50;;;;;;;7.00;82.50;100085.23;123892;1098;104233;-78
2024/01/06 09:40:14;;;;;;;34.93;16.40;;;;;;;7.11;82.58;100083.96;123628;1099;104379;-78
2024/01/06 09:42:45;;;;;;;31.33;17.00;;;;;;;7.24;82.96;100084.48;123853;1099;104430;-77
2024/01/06 09:45:17;;;;;;;34.80;17.47;;;;;;;7.36;82.29;100079.78;123645;1099;104724;-78
2024/01/06 09:47:52;;;;;;;34.73;16.37;;;;;;;7.46;82.30;100081.93;123715;1099;104743;-78
2024/01/06 09:50:24;;;;;;;29.90;15.13;;;;;;;7.59;82.46;100069.38;123515;1099;104325;-78
2024/01/06 09:53:05;;;;;;;33.47;14.70;;;;;;;7.68;82.21;100057.61;123694;1099;104294;-78
2024/01/06 09:55:37;;;;;;;32.80;14.93;;;;;;;7.83;82.87;100048.59;123722;1099;104364;-78
2024/01/06 09:58:10;;;;;;;29.67;15.63;;;;;;;7.96;83.02;100047.34;123687;1098;104389;-78
2024/01/06 10:00:41;;;;;;;30.13;14.27;;;;;;;8.08;83.03;100045.20;123742;1098;104277;-77
2024/01/06 10:03:12;;;;;;;29.23;15.33;;;;;;;8.22;82.43;100038.77;123714;1099;104684;-78
2024/01/06 10:05:44;;;;;;;32.80;15.10;;;;;;;8.34;82.33;100037.48;123674;1098;104287;-78
2024/01/06 10:08:15;;;;;;;26.73;14.73;;;;;;;8.36;82.48;100025.34;123554;1099;104303;-77
2024/01/06 10:10:48;;;;;;;29.00;14.40;;;;;;;8.44;82.86;100016.08;123726;1099;104323;-77
2024/01/06 10:13:20;;;;;;;28.07;14.63;;;;;;;8.49;82.50;100014.52;123944;1099;104277;-77
2024/01/06 10:15:52;;;;;;;27.67;13.17;;;;;;;8.54;82.30;100017.30;123646;1098;104270;-77
2024/01/06 10:18:23;;;;;;;26.00;14.07;;;;;;;8.61;82.54;100017.58;123662;1099;104297;-78
2024/01/06 10:20:54;;;;;;;25.63;13.57;;;;;;;8.72;82.50;100004.88;123864;1099;104382;-77
2024/01/06 10:23:27;;;;;;;26.70;12.40;;;;;;;8.87;83.17;100007.16;123624;1099;104363;-77
2024/01/06 10:25:58;;;;;;;26.13;13.17;;;;;;;8.98;83.05;100008.41;123538;1099;104366;-78
2024/01/06 10:28:30;;;;;;;24.63;12.73;;;;;;;9.08;82.71;100006.09;123746;1099;104242;-78
2024/01/06 10:31:01;;;;;;;20.10;10.67;;;;;;;9.13;82.54;100000.19;123991;1099;104236;-78
2024/01/06 10:33:35;;;;;;;20.15;10.30;;;;;;;9.19;82.21;99996.87;123717;1099;104337;-77
2024/01/06 10:36:08;;;;;;;19.48;9.48;;;;;;;9.25;82.19;99990.95;123708;1099;104223;-78
2024/01/06 10:38:41;;;;;;;19.30;10.60;;;;;;;9.30;82.30;99990.28;123697;1099;104275;-77
2024/01/06 10:41:16;;;;;;;19.40;10.10;;;;;;;9.31;82.25;99975.45;123651;1099;104386;-77
2024/01/06 10:43:47;;;;;;;20.80;10.03;;;;;;;9.32;82.03;99962.41;123710;1099;104290;-78
2024/01/06 10:46:24;;;;;;;18.70;9.20;;;;;;;9.30;82.13;99964.09;123570;1099;104316;-78
2024/01/06 10:48:56;;;;;;;19.13;9.00;;;;;;;9.30;81.84;99958.86;123655;1099;104380;-78
2024/01/06 10:51:30;;;;;;;19.13;9.77;;;;;;;9.28;82.35;99954.41;123801;1099;104316;-77
2024/01/06 10:54:03;;;;;;;19.27;8.80;;;;;;;9.28;81.75;99944.81;123826;1099;104281;-77
2024/01/06 10:56:39;;;;;;;17.93;9.07;;;;;;;9.26;81.96;99946.50;123663;1099;104261;-77
2024/01/06 10:59:12;;;;;;;18.00;8.33;;;;;;;9.23;82.11;99935.93;123616;1099;104285;-78
2024/01/06 11:01:45;;;;;;;17.13;8.53;;;;;;;9.27;82.32;99921.20;123851;1099;104281;-79
2024/01/06 11:04:17;;;;;;;19.03;9.40;;;;;;;9.33;81.98;99926.63;123762;1099;104265;-78
2024/01/06 11:06:49;;;;;;;18.80;9.33;;;;;;;9.35;81.90;99936.32;123699;1099;104242;-76
2024/01/06 11:09:23;;;;;;;19.47;9.50;;;;;;;9.29;82.07;99916.92;123767;1099;104370;-77
2024/01/06 11:11:56;;;;;;;19.37;9.07;;;;;;;9.21;82.11;99915.77;123767;1099;104301;-76
2024/01/06 11:14:28;;;;;;;18.70;8.93;;;;;;;9.17;81.52;99931.38;123757;1099;104395;-77
2024/01/06 11:17:00;;;;;;;17.83;9.13;;;;;;;9.17;82.16;99920.91;123828;1098;104261;-77
2024/01/06 11:19:49;;;;;;;18.05;9.05;;;;;;;9.18;82.14;99919.20;123658;1099;104829;-77
2024/01/06 11:22:28;;;;;;;17.93;8.70;;;;;;;9.21;81.61;99921.91;123839;1099;104222;-78
2024/01/06 11:25:05;;;;;;;17.90;8.63;;;;;;;9.20;82.00;99914.89;124209;1098;118602;-78